createdAt,value
2018-11-04T00:00:24.981Z,11.20
2018-11-04T00:02:54.837Z,11.20
2018-11-04T00:05:24.496Z,11.10
2018-11-04T00:07:54.021Z,11.20
2018-11-04T00:10:23.848Z,11.20
2018-11-04T00:12:53.535Z,11.20
2018-11-04T00:15:23.186Z,11.20
2018-11-04T00:17:53.165Z,11.30
2018-11-04T00:20:22.630Z,11.20
2018-11-04T00:22:52.390Z,11.20
2018-11-04T00:25:22.154Z,11.20
2018-11-04T00:27:51.824Z,11.20
2018-11-04T00:30:21.460Z,11.20
2018-11-04T00:32:51.147Z,11.20
2018-11-04T00:35:20.810Z,11.20
2018-11-04T00:37:50.560Z,11.30
2018-11-04T00:40:20.147Z,11.30
2018-11-04T00:42:49.676Z,11.30
2018-11-04T00:45:19.572Z,11.30
2018-11-04T00:47:49.321Z,11.30
2018-11-04T00:50:19.032Z,11.30
2018-11-04T00:52:48.804Z,11.30
2018-11-04T00:55:18.653Z,11.30
2018-11-04T00:57:48.398Z,11.30
2018-11-04T01:00:19.306Z,11.30
2018-11-04T01:02:50.103Z,11.20
2018-11-04T01:05:20.026Z,11.30
2018-11-04T01:07:49.634Z,11.30
2018-11-04T01:10:19.440Z,11.20
2018-11-04T01:12:49.280Z,11.20
2018-11-04T01:15:18.988Z,11.20
2018-11-04T01:17:48.615Z,11.20
2018-11-04T01:20:18.413Z,11.20
2018-11-04T01:22:48.118Z,11.20
2018-11-04T01:25:17.832Z,11.30
2018-11-04T01:27:47.632Z,11.30
2018-11-04T01:30:17.351Z,11.30
2018-11-04T01:32:46.946Z,11.30
2018-11-04T01:35:16.718Z,11.30
2018-11-04T01:37:46.488Z,11.30
2018-11-04T01:40:16.184Z,11.30
2018-11-04T01:42:45.805Z,11.30
2018-11-04T01:45:16.400Z,11.30
2018-11-04T01:47:46.245Z,11.30
2018-11-04T01:50:15.814Z,11.30
2018-11-04T01:52:45.493Z,11.30
2018-11-04T01:55:15.185Z,11.30
2018-11-04T01:57:44.637Z,11.30
2018-11-04T02:00:15.538Z,11.40
2018-11-04T02:02:45.937Z,11.40
2018-11-04T02:05:16.083Z,11.30
2018-11-04T02:07:45.825Z,11.30
2018-11-04T02:10:15.803Z,11.30
2018-11-04T02:12:45.446Z,11.30
2018-11-04T02:15:15.123Z,11.30
2018-11-04T02:17:46.070Z,11.30
2018-11-04T02:20:15.882Z,11.30
2018-11-04T02:22:45.633Z,11.30
2018-11-04T02:25:15.271Z,11.30
2018-11-04T02:27:45.036Z,11.30
2018-11-04T02:30:16.073Z,11.30
2018-11-04T02:32:46.667Z,11.30
2018-11-04T02:35:16.835Z,11.30
2018-11-04T02:37:46.466Z,11.30
2018-11-04T02:40:16.320Z,11.30
2018-11-04T02:42:45.963Z,11.30
2018-11-04T02:45:15.538Z,11.30
2018-11-04T02:47:45.140Z,11.30
2018-11-04T02:50:14.976Z,11.30
2018-11-04T02:52:44.549Z,11.30
2018-11-04T02:55:14.252Z,11.30
2018-11-04T02:57:43.983Z,11.30
2018-11-04T03:00:15.044Z,11.30
2018-11-04T03:02:44.648Z,11.30
2018-11-04T03:05:14.397Z,11.30
2018-11-04T03:07:44.388Z,11.30
2018-11-04T03:10:14.877Z,11.30
2018-11-04T03:12:44.571Z,11.30
2018-11-04T03:15:14.010Z,11.30
2018-11-04T03:17:43.730Z,11.20
2018-11-04T03:20:13.498Z,11.20
2018-11-04T03:22:43.252Z,11.30
2018-11-04T03:25:12.953Z,11.20
2018-11-04T03:27:42.461Z,11.20
2018-11-04T03:30:12.196Z,11.20
2018-11-04T03:32:41.783Z,11.20
2018-11-04T03:35:11.490Z,11.20
2018-11-04T03:37:41.743Z,11.20
2018-11-04T03:40:12.492Z,11.20
2018-11-04T03:42:42.642Z,11.10
2018-11-04T03:45:12.362Z,11.20
2018-11-04T03:47:41.958Z,11.20
2018-11-04T03:50:12.831Z,11.20
2018-11-04T03:52:42.802Z,11.20
2018-11-04T03:55:12.576Z,11.20
2018-11-04T03:57:42.226Z,11.20
2018-11-04T04:00:13.014Z,11.20
2018-11-04T04:02:43.570Z,11.20
2018-11-04T04:05:13.320Z,11.20
2018-11-04T04:07:43.050Z,11.20
2018-11-04T04:10:12.606Z,11.20
2018-11-04T04:12:42.483Z,11.20
2018-11-04T04:15:12.384Z,11.20
2018-11-04T04:17:42.230Z,11.20
2018-11-04T04:20:12.097Z,11.20
2018-11-04T04:22:41.703Z,11.10
2018-11-04T04:25:11.520Z,11.20
2018-11-04T04:27:41.294Z,11.10
2018-11-04T04:30:11.799Z,11.20
2018-11-04T04:32:41.582Z,11.10
2018-11-04T04:35:11.754Z,11.10
2018-11-04T04:37:42.134Z,11.00
2018-11-04T04:40:11.642Z,11.10
2018-11-04T04:42:41.344Z,11.10
2018-11-04T04:45:11.105Z,11.10
2018-11-04T04:47:40.732Z,11.10
2018-11-04T04:50:10.596Z,11.20
2018-11-04T04:52:40.407Z,11.10
2018-11-04T04:55:10.297Z,11.20
2018-11-04T04:57:40.118Z,11.20
2018-11-04T05:00:09.742Z,11.10
2018-11-04T05:02:39.315Z,11.10
2018-11-04T05:05:09.152Z,11.10
2018-11-04T05:07:38.886Z,11.10
2018-11-04T05:10:08.357Z,11.20
2018-11-04T05:12:38.085Z,11.20
2018-11-04T05:15:08.436Z,11.20
2018-11-04T05:17:38.444Z,11.20
2018-11-04T05:20:08.070Z,11.20
2018-11-04T05:22:37.830Z,11.20
2018-11-04T05:25:07.579Z,11.20
2018-11-04T05:27:37.038Z,11.20
2018-11-04T05:30:08.915Z,11.10
2018-11-04T05:32:38.661Z,11.20
2018-11-04T05:35:08.553Z,11.20
2018-11-04T05:37:38.627Z,11.20
2018-11-04T05:40:08.470Z,11.20
2018-11-04T05:42:38.007Z,11.20
2018-11-04T05:45:08.012Z,11.20
2018-11-04T05:47:37.940Z,11.20
2018-11-04T05:50:07.833Z,11.20
2018-11-04T05:52:37.750Z,11.20
2018-11-04T05:55:08.131Z,11.20
2018-11-04T05:57:38.030Z,11.10
2018-11-04T06:00:08.733Z,11.20
2018-11-04T06:02:38.476Z,11.20
2018-11-04T06:05:09.158Z,11.20
2018-11-04T06:07:38.846Z,11.10
2018-11-04T06:10:08.559Z,11.10
2018-11-04T06:12:38.562Z,11.10
2018-11-04T06:15:08.950Z,11.10
2018-11-04T06:17:38.772Z,11.10
2018-11-04T06:20:09.556Z,11.10
2018-11-04T06:22:39.246Z,11.10
2018-11-04T06:25:09.032Z,11.00
2018-11-04T06:27:38.844Z,11.00
2018-11-04T06:30:10.336Z,11.10
2018-11-04T06:32:40.036Z,11.10
2018-11-04T06:35:10.344Z,11.10
2018-11-04T06:37:40.022Z,11.10
2018-11-04T06:40:10.608Z,11.10
2018-11-04T06:42:40.361Z,11.10
2018-11-04T06:45:10.921Z,11.20
2018-11-04T06:47:40.890Z,11.20
2018-11-04T06:50:12.387Z,11.10
2018-11-04T06:52:42.890Z,11.10
2018-11-04T06:55:12.494Z,11.10
2018-11-04T06:57:42.258Z,11.10
2018-11-04T07:00:12.431Z,11.10
2018-11-04T07:02:42.138Z,11.10
2018-11-04T07:05:11.880Z,11.10
2018-11-04T07:07:41.694Z,11.10
2018-11-04T07:10:11.479Z,11.10
2018-11-04T07:12:41.193Z,11.10
2018-11-04T07:15:10.824Z,11.00
2018-11-04T07:17:40.510Z,11.10
2018-11-04T07:20:10.319Z,11.10
2018-11-04T07:22:39.792Z,11.10
2018-11-04T07:25:09.495Z,11.00
2018-11-04T07:27:39.373Z,11.00
2018-11-04T07:30:10.726Z,11.00
2018-11-04T07:32:40.477Z,11.00
2018-11-04T07:35:10.693Z,11.00
2018-11-04T07:37:40.600Z,11.00
2018-11-04T07:40:10.385Z,10.90
2018-11-04T07:42:39.916Z,10.90
2018-11-04T07:45:10.178Z,11.00
2018-11-04T07:47:39.827Z,11.00
2018-11-04T07:50:11.930Z,11.00
2018-11-04T07:52:41.891Z,11.00
2018-11-04T07:55:11.549Z,11.00
2018-11-04T07:57:42.264Z,11.00
2018-11-04T08:00:14.990Z,11.00
2018-11-04T08:02:45.063Z,11.00
2018-11-04T08:05:14.724Z,11.10
2018-11-04T08:07:44.426Z,11.10
2018-11-04T08:10:14.829Z,11.10
2018-11-04T08:12:44.535Z,11.10
2018-11-04T08:15:14.324Z,11.10
2018-11-04T08:17:44.014Z,11.10
2018-11-04T08:20:13.815Z,11.10
2018-11-04T08:22:43.475Z,11.10
2018-11-04T08:25:13.150Z,11.10
2018-11-04T08:27:43.050Z,11.10
2018-11-04T08:30:12.785Z,11.10
2018-11-04T08:32:42.410Z,11.10
2018-11-04T08:35:12.195Z,11.10
2018-11-04T08:37:41.936Z,11.10
2018-11-04T08:40:11.806Z,11.10
2018-11-04T08:42:41.349Z,11.20
2018-11-04T08:45:11.082Z,11.10
2018-11-04T08:47:40.806Z,11.10
2018-11-04T08:50:11.164Z,11.10
2018-11-04T08:52:40.978Z,11.10
2018-11-04T08:55:11.195Z,11.10
2018-11-04T08:57:40.820Z,11.10
2018-11-04T09:00:13.029Z,11.00
2018-11-04T09:02:43.551Z,11.00
2018-11-04T09:05:13.247Z,11.00
2018-11-04T09:07:42.942Z,11.00
2018-11-04T09:10:14.776Z,11.00
2018-11-04T09:12:45.160Z,11.00
2018-11-04T09:15:14.968Z,11.00
2018-11-04T09:17:44.578Z,11.00
2018-11-04T09:20:16.635Z,11.00
2018-11-04T09:22:46.392Z,11.10
2018-11-04T09:25:16.034Z,11.10
2018-11-04T09:27:45.758Z,11.10
2018-11-04T09:30:16.462Z,11.20
2018-11-04T09:32:46.212Z,11.10
2018-11-04T09:35:15.866Z,11.10
2018-11-04T09:37:45.502Z,11.10
2018-11-04T09:40:15.260Z,11.10
2018-11-04T09:42:45.115Z,11.10
2018-11-04T09:45:15.026Z,11.10
2018-11-04T09:47:44.882Z,11.10
2018-11-04T09:50:14.377Z,11.10
2018-11-04T09:52:44.137Z,11.20
2018-11-04T09:55:13.873Z,11.20
2018-11-04T09:57:43.693Z,11.10
2018-11-04T10:00:13.624Z,11.20
2018-11-04T10:02:43.535Z,11.20
2018-11-04T10:05:13.174Z,11.20
2018-11-04T10:07:42.741Z,11.20
2018-11-04T10:10:13.742Z,11.20
2018-11-04T10:12:44.145Z,11.20
2018-11-04T10:15:13.934Z,11.10
2018-11-04T10:17:44.614Z,11.10
2018-11-04T10:20:14.582Z,11.10
2018-11-04T10:22:43.961Z,11.10
2018-11-04T10:25:13.804Z,11.10
2018-11-04T10:27:43.639Z,11.10
2018-11-04T10:30:14.709Z,11.00
2018-11-04T10:32:44.593Z,11.00
2018-11-04T10:35:14.186Z,11.10
2018-11-04T10:37:44.114Z,11.10
2018-11-04T10:40:14.106Z,11.10
2018-11-04T10:42:43.839Z,11.10
2018-11-04T10:45:13.460Z,11.10
2018-11-04T10:47:43.219Z,11.10
2018-11-04T10:50:13.505Z,11.10
2018-11-04T10:52:43.181Z,11.10
2018-11-04T10:55:12.843Z,11.10
2018-11-04T10:57:42.510Z,11.20
2018-11-04T11:01:15.042Z,11.20
2018-11-04T11:03:44.826Z,11.20
2018-11-04T11:06:14.609Z,11.20
2018-11-04T11:08:44.361Z,11.20
2018-11-04T11:11:14.005Z,11.20
2018-11-04T11:13:43.742Z,11.20
2018-11-04T11:16:13.375Z,11.20
2018-11-04T11:18:43.721Z,11.20
2018-11-04T11:21:13.258Z,11.20
2018-11-04T11:23:42.853Z,11.20
2018-11-04T11:26:12.567Z,11.20
2018-11-04T11:28:42.285Z,11.20
2018-11-04T11:31:12.135Z,11.20
2018-11-04T11:33:41.801Z,11.20
2018-11-04T11:36:11.431Z,11.20
2018-11-04T11:38:41.275Z,11.20
2018-11-04T11:41:10.902Z,11.20
2018-11-04T11:43:40.658Z,11.20
2018-11-04T11:46:10.520Z,11.30
2018-11-04T11:48:40.254Z,11.30
2018-11-04T11:51:09.934Z,11.30
2018-11-04T11:53:39.422Z,11.30
2018-11-04T11:56:09.029Z,11.30
2018-11-04T11:58:38.780Z,11.30
2018-11-04T12:01:08.390Z,11.30
2018-11-04T12:03:38.237Z,11.30
2018-11-04T12:06:08.044Z,11.30
2018-11-04T12:08:37.785Z,11.40
2018-11-04T12:11:07.733Z,11.40
2018-11-04T12:13:37.521Z,11.30
2018-11-04T12:16:07.430Z,11.30
2018-11-04T12:18:37.227Z,11.30
2018-11-04T12:21:06.910Z,11.30
2018-11-04T12:23:36.725Z,11.30
2018-11-04T12:26:06.621Z,11.30
2018-11-04T12:28:36.318Z,11.40
2018-11-04T12:31:06.386Z,11.40
2018-11-04T12:33:36.144Z,11.40
2018-11-04T12:36:05.870Z,11.40
2018-11-04T12:38:35.570Z,11.40
2018-11-04T12:41:05.584Z,11.50
2018-11-04T12:43:35.400Z,11.50
2018-11-04T12:46:05.198Z,11.50
2018-11-04T12:48:34.872Z,11.50
2018-11-04T12:51:04.696Z,11.60
2018-11-04T12:53:34.398Z,11.60
2018-11-04T12:56:03.972Z,11.60
2018-11-04T12:58:33.523Z,11.60
2018-11-04T13:01:03.375Z,11.50
2018-11-04T13:03:33.014Z,11.50
2018-11-04T13:06:02.880Z,11.50
2018-11-04T13:08:32.548Z,11.50
2018-11-04T13:11:02.202Z,11.60
2018-11-04T13:13:31.824Z,11.60
2018-11-04T13:16:01.532Z,11.60
2018-11-04T13:18:31.166Z,11.60
2018-11-04T13:21:00.910Z,11.60
2018-11-04T13:23:30.645Z,11.50
2018-11-04T13:26:00.353Z,11.50
2018-11-04T13:28:30.192Z,11.50
2018-11-04T13:30:59.942Z,11.50
2018-11-04T13:33:29.812Z,11.50
2018-11-04T13:35:59.539Z,11.50
2018-11-04T13:38:29.341Z,11.50
2018-11-04T13:40:59.051Z,11.50
2018-11-04T13:43:28.914Z,11.50
2018-11-04T13:45:58.733Z,11.50
2018-11-04T13:48:28.318Z,11.50
2018-11-04T13:50:57.972Z,11.50
2018-11-04T13:53:27.670Z,11.50
2018-11-04T13:55:57.291Z,11.50
2018-11-04T13:58:27.281Z,11.50
2018-11-04T14:00:57.009Z,11.50
2018-11-04T14:03:26.593Z,11.50
2018-11-04T14:05:56.421Z,11.50
2018-11-04T14:08:26.152Z,11.50
2018-11-04T14:10:56.189Z,11.50
2018-11-04T14:13:25.942Z,11.50
2018-11-04T14:15:55.778Z,11.50
2018-11-04T14:18:25.825Z,11.50
2018-11-04T14:20:55.698Z,11.50
2018-11-04T14:23:25.405Z,11.60
2018-11-04T14:25:55.215Z,11.50
2018-11-04T14:28:25.087Z,11.50
2018-11-04T14:30:54.948Z,11.50
2018-11-04T14:33:24.786Z,11.50
2018-11-04T14:35:54.509Z,11.50
2018-11-04T14:38:24.484Z,11.50
2018-11-04T14:40:55.114Z,11.50
2018-11-04T14:43:24.891Z,11.50
2018-11-04T14:45:54.474Z,11.50
2018-11-04T14:48:24.409Z,11.50
2018-11-04T14:50:54.090Z,11.40
2018-11-04T14:53:24.091Z,11.40
2018-11-04T14:55:53.901Z,11.40
2018-11-04T14:58:23.545Z,11.40
2018-11-04T15:00:53.336Z,11.40
2018-11-04T15:03:23.144Z,11.40
2018-11-04T15:05:53.147Z,11.40
2018-11-04T15:08:23.000Z,11.40
2018-11-04T15:10:52.887Z,11.40
2018-11-04T15:13:22.566Z,11.40
2018-11-04T15:15:52.251Z,11.40
2018-11-04T15:18:22.165Z,11.40
2018-11-04T15:20:51.857Z,11.30
2018-11-04T15:23:21.757Z,11.40
2018-11-04T15:25:51.591Z,11.30
2018-11-04T15:28:21.501Z,11.30
2018-11-04T15:30:51.111Z,11.30
2018-11-04T15:33:21.018Z,11.30
2018-11-04T15:35:50.737Z,11.30
2018-11-04T15:38:20.705Z,11.20
2018-11-04T15:40:50.565Z,11.30
2018-11-04T15:43:20.352Z,11.30
2018-11-04T15:45:50.317Z,11.30
2018-11-04T15:48:20.013Z,11.30
2018-11-04T15:50:49.757Z,11.40
2018-11-04T15:53:20.020Z,11.40
2018-11-04T15:55:49.957Z,11.40
2018-11-04T15:58:19.712Z,11.40
2018-11-04T16:00:49.785Z,11.30
2018-11-04T16:03:19.322Z,11.30
2018-11-04T16:05:49.261Z,11.40
2018-11-04T16:08:19.143Z,11.30
2018-11-04T16:10:49.150Z,11.30
2018-11-04T16:13:18.956Z,11.40
2018-11-04T16:15:48.746Z,11.30
2018-11-04T16:18:18.589Z,11.40
2018-11-04T16:20:48.246Z,11.40
2018-11-04T16:23:18.104Z,11.40
2018-11-04T16:25:47.625Z,11.40
2018-11-04T16:28:17.419Z,11.40
2018-11-04T16:30:47.452Z,11.30
2018-11-04T16:33:17.163Z,11.30
2018-11-04T16:35:46.933Z,11.40
2018-11-04T16:38:16.848Z,11.40
2018-11-04T16:40:46.656Z,11.40
2018-11-04T16:43:16.505Z,11.30
2018-11-04T16:45:46.308Z,11.30
2018-11-04T16:48:16.100Z,11.30
2018-11-04T16:50:45.878Z,11.30
2018-11-04T16:53:15.738Z,11.20
2018-11-04T16:55:45.362Z,11.30
2018-11-04T16:58:15.351Z,11.20
2018-11-04T17:00:45.169Z,11.20
2018-11-04T17:03:15.177Z,11.20
2018-11-04T17:05:45.179Z,11.20
2018-11-04T17:08:14.824Z,11.20
2018-11-04T17:10:45.207Z,11.20
2018-11-04T17:13:14.971Z,11.20
2018-11-04T17:15:44.900Z,11.20
2018-11-04T17:18:14.623Z,11.20
2018-11-04T17:20:44.356Z,11.20
2018-11-04T17:23:14.126Z,11.20
2018-11-04T17:25:43.920Z,11.20
2018-11-04T17:28:13.522Z,11.20
2018-11-04T17:30:44.119Z,11.20
2018-11-04T17:33:13.851Z,11.30
2018-11-04T17:35:43.709Z,11.30
2018-11-04T17:38:13.479Z,11.30
2018-11-04T17:40:43.233Z,11.30
2018-11-04T17:43:12.864Z,11.30
2018-11-04T17:45:42.656Z,11.30
2018-11-04T17:48:12.436Z,11.30
2018-11-04T17:50:42.255Z,11.30
2018-11-04T17:53:11.798Z,11.30
2018-11-04T17:55:41.533Z,11.30
2018-11-04T17:58:11.323Z,11.30
2018-11-04T18:00:40.925Z,11.20
2018-11-04T18:03:18.162Z,11.30
2018-11-04T18:05:48.655Z,11.30
2018-11-04T18:08:18.550Z,11.30
2018-11-04T18:10:48.195Z,11.30
2018-11-04T18:13:18.080Z,11.30
2018-11-04T18:15:47.891Z,11.30
2018-11-04T18:18:17.783Z,11.30
2018-11-04T18:20:47.589Z,11.30
2018-11-04T18:23:17.393Z,11.30
2018-11-04T18:25:47.130Z,11.30
2018-11-04T18:28:16.768Z,11.30
2018-11-04T18:30:46.318Z,11.30
2018-11-04T18:33:16.068Z,11.30
2018-11-04T18:35:45.805Z,11.30
2018-11-04T18:38:15.588Z,11.20
2018-11-04T18:40:45.390Z,11.20
2018-11-04T18:43:15.098Z,11.20
2018-11-04T18:45:45.788Z,11.10
2018-11-04T18:48:15.678Z,11.10
2018-11-04T18:50:45.476Z,11.10
2018-11-04T18:53:15.211Z,11.10
2018-11-04T18:55:44.984Z,11.10
2018-11-04T18:58:14.796Z,11.10
2018-11-04T19:00:44.508Z,11.10
2018-11-04T19:03:14.122Z,11.10
2018-11-04T19:05:43.862Z,11.10
2018-11-04T19:08:13.550Z,11.00
2018-11-04T19:10:43.449Z,11.10
2018-11-04T19:13:13.253Z,11.10
2018-11-04T19:15:43.050Z,11.10
2018-11-04T19:18:13.350Z,11.10
2018-11-04T19:20:43.028Z,11.10
2018-11-04T19:23:12.697Z,11.10
2018-11-04T19:25:42.373Z,11.20
2018-11-04T19:28:12.257Z,11.20
2018-11-04T19:30:42.011Z,11.20
2018-11-04T19:33:11.707Z,11.20
2018-11-04T19:35:41.603Z,11.20
2018-11-04T19:38:11.271Z,11.20
2018-11-04T19:40:41.093Z,11.20
2018-11-04T19:43:10.807Z,11.20
2018-11-04T19:45:40.502Z,11.20
2018-11-04T19:48:10.345Z,11.20
2018-11-04T19:50:39.872Z,11.20
2018-11-04T19:53:09.696Z,11.20
2018-11-04T19:55:39.444Z,11.20
2018-11-04T19:58:09.345Z,11.20
2018-11-04T20:00:38.999Z,11.20
2018-11-04T20:03:08.738Z,11.30
2018-11-04T20:05:38.416Z,11.30
2018-11-04T20:08:08.257Z,11.30
2018-11-04T20:10:38.037Z,11.20
2018-11-04T20:13:12.874Z,11.20
2018-11-04T20:15:42.382Z,11.20
2018-11-04T20:18:17.415Z,11.20
2018-11-04T20:20:47.006Z,11.20
2018-11-04T20:23:16.762Z,11.20
2018-11-04T20:25:51.684Z,11.10
2018-11-04T20:28:21.420Z,11.10
2018-11-04T20:30:51.011Z,11.10
2018-11-04T20:33:20.714Z,11.20
2018-11-04T20:35:50.604Z,11.20
2018-11-04T20:38:24.505Z,11.20
2018-11-04T20:40:59.526Z,11.20
2018-11-04T20:43:29.218Z,11.20
2018-11-04T20:45:59.295Z,11.20
2018-11-04T20:48:34.258Z,11.20
2018-11-04T20:51:06.216Z,11.20
2018-11-04T20:53:36.448Z,11.20
2018-11-04T20:56:11.752Z,11.20
2018-11-04T20:58:41.542Z,11.20
2018-11-04T21:01:11.252Z,11.20
2018-11-04T21:03:41.074Z,11.10
2018-11-04T21:06:11.007Z,11.10
2018-11-04T21:08:40.840Z,11.10
2018-11-04T21:11:10.650Z,11.10
2018-11-04T21:13:40.451Z,11.10
2018-11-04T21:16:10.309Z,11.10
2018-11-04T21:18:39.880Z,11.10
2018-11-04T21:21:09.647Z,11.10
2018-11-04T21:23:39.538Z,11.10
2018-11-04T21:26:09.278Z,11.10
2018-11-04T21:28:39.274Z,11.10
2018-11-04T21:31:08.835Z,11.10
2018-11-04T21:33:38.728Z,11.20
2018-11-04T21:36:08.592Z,11.20
2018-11-04T21:38:38.376Z,11.20
2018-11-04T21:41:08.139Z,11.20
2018-11-04T21:43:38.079Z,11.20
2018-11-04T21:46:07.627Z,11.20
2018-11-04T21:48:37.310Z,11.30
2018-11-04T21:51:07.196Z,11.20
2018-11-04T21:53:36.852Z,11.20
2018-11-04T21:56:06.966Z,11.20
2018-11-04T21:58:36.663Z,11.20
2018-11-04T22:01:06.606Z,11.20
2018-11-04T22:03:36.443Z,11.20
2018-11-04T22:06:06.424Z,11.20
2018-11-04T22:08:36.236Z,11.20
2018-11-04T22:11:05.938Z,11.20
2018-11-04T22:13:35.755Z,11.20
2018-11-04T22:16:05.544Z,11.20
2018-11-04T22:18:35.406Z,11.20
2018-11-04T22:21:05.239Z,11.30
2018-11-04T22:23:35.029Z,11.30
2018-11-04T22:26:04.922Z,11.30
2018-11-04T22:28:34.680Z,11.30
2018-11-04T22:31:04.434Z,11.20
2018-11-04T22:33:33.972Z,11.20
2018-11-04T22:36:03.774Z,11.20
2018-11-04T22:38:33.553Z,11.10
2018-11-04T22:41:03.356Z,11.10
2018-11-04T22:43:33.150Z,11.10
2018-11-04T22:46:02.814Z,11.20
2018-11-04T22:48:32.643Z,11.10
2018-11-04T22:51:02.270Z,11.10
2018-11-04T22:53:31.841Z,11.10
2018-11-04T22:56:01.623Z,11.20
2018-11-04T22:58:31.246Z,11.20
2018-11-04T23:01:02.126Z,11.20
2018-11-04T23:03:31.932Z,11.20
2018-11-04T23:06:05.105Z,11.20
2018-11-04T23:08:35.058Z,11.20
2018-11-04T23:11:04.946Z,11.20
2018-11-04T23:13:34.678Z,11.20
2018-11-04T23:16:04.563Z,11.20
2018-11-04T23:18:35.147Z,11.20
2018-11-04T23:21:04.832Z,11.20
2018-11-04T23:23:34.641Z,11.20
2018-11-04T23:26:04.350Z,11.20
2018-11-04T23:28:34.038Z,11.20
2018-11-04T23:31:03.752Z,11.20
2018-11-04T23:33:33.328Z,11.20
2018-11-04T23:36:02.998Z,11.20
2018-11-04T23:38:32.628Z,11.20
2018-11-04T23:41:02.281Z,11.20
2018-11-04T23:43:31.988Z,11.30
2018-11-04T23:46:01.796Z,11.20
2018-11-04T23:48:31.600Z,11.20
2018-11-04T23:51:01.555Z,11.20
2018-11-04T23:53:31.262Z,11.20
2018-11-04T23:56:00.893Z,11.30
2018-11-04T23:58:30.592Z,11.20
